createdAt,value
2023-02-06T00:02:13.737Z,103263.09
2023-02-06T00:04:40.376Z,103266.91
2023-02-06T00:07:07.052Z,103261.34
2023-02-06T00:09:33.678Z,103263.00
2023-02-06T00:12:00.315Z,103262.41
2023-02-06T00:14:27.172Z,103256.25
2023-02-06T00:16:53.904Z,103261.75
2023-02-06T00:19:20.719Z,103245.59
2023-02-06T00:21:47.273Z,103247.22
2023-02-06T00:24:14.022Z,103245.03
2023-02-06T00:26:40.618Z,103244.38
2023-02-06T00:29:07.490Z,103246.59
2023-02-06T00:31:34.315Z,103236.03
2023-02-06T00:34:01.159Z,103241.69
2023-02-06T00:36:27.758Z,103248.41
2023-02-06T00:38:54.455Z,103250.88
2023-02-06T00:41:21.509Z,103257.50
2023-02-06T00:43:51.144Z,103248.59
2023-02-06T00:46:17.866Z,103251.56
2023-02-06T00:48:44.533Z,103248.28
2023-02-06T00:51:11.345Z,103240.16
2023-02-06T00:53:38.546Z,103242.31
2023-02-06T00:56:05.546Z,103242.84
2023-02-06T00:58:32.620Z,103242.84
2023-02-06T01:00:59.264Z,103249.72
2023-02-06T01:03:26.037Z,103249.72
2023-02-06T01:05:52.723Z,103244.97
2023-02-06T01:08:19.388Z,103247.75
2023-02-06T01:10:46.403Z,103242.69
2023-02-06T01:13:13.286Z,103252.09
2023-02-06T01:15:41.381Z,103252.09
2023-02-06T01:18:08.279Z,103259.78
2023-02-06T01:20:35.120Z,103262.06
2023-02-06T01:23:04.165Z,103264.16
2023-02-06T01:25:31.730Z,103264.16
2023-02-06T01:27:58.668Z,103257.53
2023-02-06T01:30:25.289Z,103261.88
2023-02-06T01:32:51.969Z,103259.09
2023-02-06T01:35:18.762Z,103264.59
2023-02-06T01:37:45.473Z,103257.69
2023-02-06T01:40:15.280Z,103264.09
2023-02-06T01:42:42.929Z,103262.91
2023-02-06T01:45:21.662Z,103256.69
2023-02-06T01:47:50.104Z,103253.31
2023-02-06T01:50:18.583Z,103252.56
2023-02-06T01:52:45.286Z,103255.00
2023-02-06T01:55:11.921Z,103251.66
2023-02-06T01:57:40.220Z,103255.44
2023-02-06T02:00:09.739Z,103261.06
2023-02-06T02:02:44.097Z,103257.63
2023-02-06T02:05:12.646Z,103257.28
2023-02-06T02:07:49.967Z,103265.59
2023-02-06T02:10:16.967Z,103268.09
2023-02-06T02:12:43.854Z,103274.16
2023-02-06T02:15:10.560Z,103270.31
2023-02-06T02:17:59.702Z,103264.91
2023-02-06T02:20:58.220Z,103264.09
2023-02-06T02:23:49.478Z,103269.66
2023-02-06T02:26:19.019Z,103266.75
2023-02-06T02:28:50.613Z,103267.88
2023-02-06T02:31:44.288Z,103263.41
2023-02-06T02:34:17.194Z,103264.50
2023-02-06T02:36:51.562Z,103266.09
2023-02-06T02:39:32.976Z,103270.53
2023-02-06T02:42:10.933Z,103271.66
2023-02-06T02:44:47.883Z,103267.94
2023-02-06T02:47:18.637Z,103268.53
2023-02-06T02:49:46.427Z,103270.09
2023-02-06T02:52:16.860Z,103269.78
2023-02-06T02:54:43.581Z,103269.28
2023-02-06T02:57:22.740Z,103269.28
2023-02-06T02:59:51.940Z,103268.94
2023-02-06T03:02:34.772Z,103271.94
2023-02-06T03:05:06.128Z,103269.19
2023-02-06T03:07:35.269Z,103260.19
2023-02-06T03:10:14.039Z,103255.50
2023-02-06T03:13:17.523Z,103256.81
2023-02-06T03:16:07.936Z,103255.72
2023-02-06T03:18:41.415Z,103259.00
2023-02-06T03:21:13.754Z,103253.47
2023-02-06T03:23:43.072Z,103259.00
2023-02-06T03:26:12.378Z,103252.25
2023-02-06T03:28:44.809Z,103250.09
2023-02-06T03:31:15.524Z,103248.88
2023-02-06T03:33:59.102Z,103245.59
2023-02-06T03:36:25.950Z,103252.97
2023-02-06T03:38:53.894Z,103255.66
2023-02-06T03:41:25.870Z,103266.34
2023-02-06T03:43:54.105Z,103262.16
2023-02-06T03:46:21.792Z,103256.75
2023-02-06T03:48:54.104Z,103260.88
2023-02-06T03:51:52.993Z,103264.81
2023-02-06T03:54:23.720Z,103256.75
2023-02-06T03:56:58.812Z,103265.81
2023-02-06T03:59:26.255Z,103260.28
2023-02-06T04:01:58.678Z,103260.78
2023-02-06T04:04:38.124Z,103265.47
2023-02-06T04:07:12.786Z,103255.22
2023-02-06T04:09:40.318Z,103262.47
2023-02-06T04:12:07.600Z,103254.88
2023-02-06T04:14:36.729Z,103262.69
2023-02-06T04:17:05.018Z,103262.59
2023-02-06T04:19:32.228Z,103270.31
2023-02-06T04:21:59.047Z,103268.63
2023-02-06T04:24:25.910Z,103265.28
2023-02-06T04:26:52.782Z,103261.66
2023-02-06T04:29:19.623Z,103252.00
2023-02-06T04:31:46.407Z,103241.44
2023-02-06T04:34:13.424Z,103252.25
2023-02-06T04:36:40.393Z,103254.91
2023-02-06T04:39:07.952Z,103261.03
2023-02-06T04:41:34.890Z,103258.28
2023-02-06T04:44:01.734Z,103259.88
2023-02-06T04:46:28.474Z,103249.28
2023-02-06T04:48:55.139Z,103250.50
2023-02-06T04:51:21.817Z,103246.03
2023-02-06T04:53:48.374Z,103242.91
2023-02-06T04:56:15.053Z,103249.28
2023-02-06T04:58:41.810Z,103253.88
2023-02-06T05:01:08.495Z,103255.59
2023-02-06T05:03:35.239Z,103264.69
2023-02-06T05:06:04.864Z,103260.84
2023-02-06T05:08:31.749Z,103267.38
2023-02-06T05:10:58.518Z,103264.22
2023-02-06T05:13:25.890Z,103269.75
2023-02-06T05:15:52.776Z,103266.84
2023-02-06T05:18:19.811Z,103268.03
2023-02-06T05:20:46.911Z,103275.50
2023-02-06T05:23:13.737Z,103275.63
2023-02-06T05:25:42.264Z,103264.91
2023-02-06T05:28:09.141Z,103264.41
2023-02-06T05:30:36.586Z,103264.97
2023-02-06T05:33:03.230Z,103264.47
2023-02-06T05:35:29.953Z,103276.16
2023-02-06T05:37:57.404Z,103274.31
2023-02-06T05:40:24.601Z,103275.47
2023-02-06T05:42:51.283Z,103276.47
2023-02-06T05:45:18.269Z,103284.50
2023-02-06T05:47:44.891Z,103284.66
2023-02-06T05:50:11.821Z,103284.88
2023-02-06T05:52:38.630Z,103285.66
2023-02-06T05:55:05.818Z,103289.75
2023-02-06T05:57:32.879Z,103286.38
2023-02-06T05:59:59.634Z,103282.16
2023-02-06T06:02:29.204Z,103286.91
2023-02-06T06:04:55.860Z,103280.75
2023-02-06T06:07:22.624Z,103286.78
2023-02-06T06:09:49.371Z,103284.50
2023-02-06T06:12:16.037Z,103288.38
2023-02-06T06:14:42.812Z,103281.16
2023-02-06T06:17:09.763Z,103279.72
2023-02-06T06:19:36.651Z,103273.81
2023-02-06T06:22:03.559Z,103264.44
2023-02-06T06:24:30.403Z,103270.47
2023-02-06T06:26:58.900Z,103261.03
2023-02-06T06:29:26.432Z,103261.56
2023-02-06T06:31:53.383Z,103259.88
2023-02-06T06:34:20.198Z,103273.03
2023-02-06T06:36:46.868Z,103267.78
2023-02-06T06:39:13.553Z,103265.06
2023-02-06T06:41:40.215Z,103259.22
2023-02-06T06:44:06.873Z,103261.31
2023-02-06T06:46:33.927Z,103256.88
2023-02-06T06:49:01.534Z,103258.28
2023-02-06T06:51:30.003Z,103254.66
2023-02-06T06:53:57.331Z,103259.09
2023-02-06T06:56:24.420Z,103265.03
2023-02-06T06:58:51.053Z,103264.38
2023-02-06T07:01:19.074Z,103262.25
2023-02-06T07:03:48.122Z,103268.53
2023-02-06T07:06:15.373Z,103270.34
2023-02-06T07:08:42.241Z,103255.34
2023-02-06T07:11:16.944Z,103255.50
2023-02-06T07:13:43.871Z,103248.69
2023-02-06T07:16:11.388Z,103249.09
2023-02-06T07:18:39.917Z,103248.81
2023-02-06T07:21:08.693Z,103246.41
2023-02-06T07:23:38.801Z,103251.13
2023-02-06T07:26:05.743Z,103237.47
2023-02-06T07:28:33.265Z,103245.56
2023-02-06T07:31:05.373Z,103235.63
2023-02-06T07:33:32.777Z,103235.66
2023-02-06T07:36:01.164Z,103234.34
2023-02-06T07:38:28.719Z,103237.91
2023-02-06T07:41:00.044Z,103222.69
2023-02-06T07:43:28.781Z,103222.91
2023-02-06T07:46:00.129Z,103220.97
2023-02-06T07:48:27.590Z,103222.50
2023-02-06T07:50:54.690Z,103224.59
2023-02-06T07:53:21.680Z,103232.66
2023-02-06T07:55:48.900Z,103226.84
2023-02-06T07:58:15.629Z,103232.97
2023-02-06T08:00:42.874Z,103232.78
2023-02-06T08:03:10.348Z,103226.31
2023-02-06T08:05:39.481Z,103221.34
2023-02-06T08:08:07.221Z,103226.13
2023-02-06T08:10:33.945Z,103231.50
2023-02-06T08:13:01.035Z,103231.50
2023-02-06T08:15:27.757Z,103230.66
2023-02-06T08:17:54.487Z,103235.88
2023-02-06T08:20:21.119Z,103231.25
2023-02-06T08:22:47.721Z,103229.28
2023-02-06T08:25:14.326Z,103228.94
2023-02-06T08:27:41.013Z,103226.53
2023-02-06T08:30:09.689Z,103228.19
2023-02-06T08:32:36.488Z,103216.16
2023-02-06T08:35:03.307Z,103221.63
2023-02-06T08:37:32.183Z,103218.88
2023-02-06T08:39:58.805Z,103217.00
2023-02-06T08:42:25.520Z,103224.81
2023-02-06T08:44:53.705Z,103227.28
2023-02-06T08:47:20.455Z,103219.22
2023-02-06T08:49:50.630Z,103222.25
2023-02-06T08:52:17.933Z,103217.28
2023-02-06T08:54:44.675Z,103212.28
2023-02-06T08:57:12.971Z,103214.41
2023-02-06T08:59:39.813Z,103209.75
2023-02-06T09:02:08.555Z,103214.69
2023-02-06T09:04:37.743Z,103213.84
2023-02-06T09:07:04.814Z,103216.63
2023-02-06T09:09:31.579Z,103218.25
2023-02-06T09:12:03.239Z,103219.41
2023-02-06T09:14:30.425Z,103210.53
2023-02-06T09:16:58.195Z,103220.59
2023-02-06T09:19:26.148Z,103221.09
2023-02-06T09:21:53.179Z,103225.53
2023-02-06T09:24:20.203Z,103222.75
2023-02-06T09:26:58.991Z,103223.53
2023-02-06T09:29:31.216Z,103226.34
2023-02-06T09:31:58.417Z,103225.16
2023-02-06T09:34:26.128Z,103223.41
2023-02-06T09:36:57.706Z,103220.13
2023-02-06T09:39:25.166Z,103219.03
2023-02-06T09:41:53.443Z,103215.72
2023-02-06T09:44:28.617Z,103222.91
2023-02-06T09:47:05.125Z,103222.34
2023-02-06T09:49:44.598Z,103230.16
2023-02-06T09:52:34.414Z,103222.91
2023-02-06T09:55:38.503Z,103219.59
2023-02-06T09:58:35.400Z,103219.59
2023-02-06T10:01:20.507Z,103217.91
2023-02-06T10:04:30.960Z,103232.94
2023-02-06T10:07:22.447Z,103230.72
2023-02-06T10:10:19.148Z,103231.44
2023-02-06T10:13:01.986Z,103235.41
2023-02-06T10:15:51.972Z,103236.00
2023-02-06T10:18:41.461Z,103235.38
2023-02-06T10:21:23.807Z,103240.00
2023-02-06T10:24:19.139Z,103244.66
2023-02-06T10:26:48.125Z,103245.19
2023-02-06T10:29:23.611Z,103244.06
2023-02-06T10:32:21.034Z,103246.25
2023-02-06T10:35:11.949Z,103237.44
2023-02-06T10:37:53.624Z,103230.19
2023-02-06T10:40:48.333Z,103234.06
2023-02-06T10:43:25.262Z,103232.41
2023-02-06T10:46:04.066Z,103222.94
2023-02-06T10:48:39.146Z,103214.03
2023-02-06T10:51:22.047Z,103221.84
2023-02-06T10:54:00.037Z,103226.56
2023-02-06T10:56:30.783Z,103218.25
2023-02-06T10:59:05.484Z,103208.81
2023-02-06T11:01:37.986Z,103204.34
2023-02-06T11:04:16.074Z,103201.22
2023-02-06T11:06:43.344Z,103203.22
2023-02-06T11:09:10.693Z,103201.28
2023-02-06T11:11:40.679Z,103194.88
2023-02-06T11:14:32.004Z,103187.94
2023-02-06T11:17:02.449Z,103188.50
2023-02-06T11:19:34.742Z,103178.50
2023-02-06T11:22:07.351Z,103186.84
2023-02-06T11:24:35.471Z,103178.22
2023-02-06T11:27:12.120Z,103176.25
2023-02-06T11:29:47.244Z,103169.28
2023-02-06T11:32:37.830Z,103169.03
2023-02-06T11:35:23.060Z,103175.44
2023-02-06T11:37:54.126Z,103173.22
2023-02-06T11:40:25.142Z,103165.16
2023-02-06T11:43:08.116Z,103158.44
2023-02-06T11:45:35.601Z,103152.06
2023-02-06T11:48:02.653Z,103152.88
2023-02-06T11:50:35.220Z,103147.84
2023-02-06T11:53:18.714Z,103146.50
2023-02-06T11:55:57.384Z,103139.25
2023-02-06T11:58:27.322Z,103144.53
2023-02-06T12:00:57.006Z,103139.00
2023-02-06T12:03:43.028Z,103133.38
2023-02-06T12:06:21.706Z,103135.06
2023-02-06T12:08:51.118Z,103118.91
2023-02-06T12:11:29.522Z,103114.75
2023-02-06T12:14:01.825Z,103110.03
2023-02-06T12:16:30.166Z,103111.13
2023-02-06T12:18:57.927Z,103103.31
2023-02-06T12:21:28.624Z,103107.25
2023-02-06T12:23:59.533Z,103100.00
2023-02-06T12:26:29.809Z,103096.41
2023-02-06T12:28:57.408Z,103099.44
2023-02-06T12:31:41.886Z,103092.78
2023-02-06T12:34:19.796Z,103083.91
2023-02-06T12:37:10.687Z,103088.31
2023-02-06T12:39:37.538Z,103086.63
2023-02-06T12:42:38.109Z,103101.69
2023-02-06T12:45:07.704Z,103100.00
2023-02-06T12:47:43.400Z,103098.91
2023-02-06T12:50:15.898Z,103098.91
2023-02-06T12:52:51.587Z,103098.06
2023-02-06T12:55:42.533Z,103087.47
2023-02-06T12:58:32.188Z,103098.91
2023-02-06T13:01:31.121Z,103105.00
2023-02-06T13:04:20.201Z,103100.84
2023-02-06T13:06:53.412Z,103096.66
2023-02-06T13:09:50.113Z,103092.78
2023-02-06T13:12:28.414Z,103101.69
2023-02-06T13:15:00.986Z,103096.13
2023-02-06T13:17:42.287Z,103097.75
2023-02-06T13:20:10.834Z,103096.41
2023-02-06T13:22:39.413Z,103091.97
2023-02-06T13:25:25.161Z,103085.56
2023-02-06T13:27:53.150Z,103090.56
2023-02-06T13:30:28.854Z,103101.16
2023-02-06T13:33:16.496Z,103088.34
2023-02-06T13:36:01.684Z,103087.22
2023-02-06T13:38:37.102Z,103078.88
2023-02-06T13:41:15.924Z,103074.97
2023-02-06T13:44:15.024Z,103073.31
2023-02-06T13:47:15.885Z,103074.41
2023-02-06T13:50:17.646Z,103067.16
2023-02-06T13:53:01.377Z,103054.38
2023-02-06T13:56:05.962Z,103067.75
2023-02-06T13:58:43.706Z,103064.69
2023-02-06T14:01:14.436Z,103067.75
2023-02-06T14:03:47.195Z,103061.03
2023-02-06T14:06:43.607Z,103065.50
2023-02-06T14:09:16.301Z,103058.25
2023-02-06T14:12:36.618Z,103061.28
2023-02-06T14:15:03.427Z,103059.63
2023-02-06T14:17:32.777Z,103049.88
2023-02-06T14:20:02.234Z,103053.22
2023-02-06T14:22:28.704Z,103052.91
2023-02-06T14:25:34.841Z,103048.72
2023-02-06T14:28:15.834Z,103038.44
2023-02-06T14:31:03.781Z,103035.31
2023-02-06T14:34:00.750Z,103044.19
2023-02-06T14:36:33.363Z,103041.41
2023-02-06T14:39:21.685Z,103050.28
2023-02-06T14:41:48.445Z,103057.50
2023-02-06T14:44:22.032Z,103058.63
2023-02-06T14:46:48.928Z,103060.25
2023-02-06T14:49:20.547Z,103060.25
2023-02-06T14:51:51.229Z,103053.06
2023-02-06T14:54:36.845Z,103057.78
2023-02-06T14:57:06.337Z,103044.72
2023-02-06T14:59:33.362Z,103049.13
2023-02-06T15:02:13.977Z,103052.97
2023-02-06T15:04:47.575Z,103047.41
2023-02-06T15:07:32.972Z,103045.13
2023-02-06T15:10:15.755Z,103049.81
2023-02-06T15:12:50.727Z,103043.09
2023-02-06T15:15:21.917Z,103040.06
2023-02-06T15:18:03.431Z,103040.00
2023-02-06T15:20:40.205Z,103038.88
2023-02-06T15:23:23.232Z,103039.13
2023-02-06T15:26:02.030Z,103041.06
2023-02-06T15:28:32.438Z,103038.28
2023-02-06T15:31:01.188Z,103038.00
2023-02-06T15:33:34.486Z,103039.34
2023-02-06T15:36:03.377Z,103047.09
2023-02-06T15:38:33.090Z,103043.75
2023-02-06T15:41:06.514Z,103049.84
2023-02-06T15:43:34.265Z,103038.44
2023-02-06T15:46:03.427Z,103047.03
2023-02-06T15:48:48.968Z,103046.19
2023-02-06T15:51:27.834Z,103043.66
2023-02-06T15:54:19.867Z,103046.72
2023-02-06T15:56:56.443Z,103047.25
2023-02-06T15:59:25.668Z,103044.72
2023-02-06T16:01:54.382Z,103048.63
2023-02-06T16:04:28.046Z,103046.09
2023-02-06T16:07:13.188Z,103039.69
2023-02-06T16:09:48.717Z,103036.34
2023-02-06T16:12:17.172Z,103036.34
2023-02-06T16:15:02.097Z,103017.19
2023-02-06T16:17:35.390Z,103040.25
2023-02-06T16:20:04.927Z,103024.19
2023-02-06T16:22:40.041Z,103026.50
2023-02-06T16:25:31.722Z,103021.63
2023-02-06T16:27:59.676Z,103021.66
2023-02-06T16:30:26.530Z,103013.66
2023-02-06T16:32:55.310Z,103015.28
2023-02-06T16:35:23.348Z,103017.56
2023-02-06T16:37:51.229Z,103006.09
2023-02-06T16:40:18.145Z,103009.72
2023-02-06T16:42:47.491Z,103005.81
2023-02-06T16:45:24.862Z,103000.00
2023-02-06T16:47:52.109Z,103013.59
2023-02-06T16:50:19.185Z,103003.03
2023-02-06T16:52:55.443Z,102998.28
2023-02-06T16:55:25.420Z,102996.31
2023-02-06T16:57:56.469Z,103001.31
2023-02-06T17:00:26.576Z,102991.28
2023-02-06T17:02:54.273Z,102996.31
2023-02-06T17:05:24.088Z,102990.75
2023-02-06T17:07:51.563Z,102997.00
2023-02-06T17:10:20.961Z,102991.72
2023-02-06T17:12:48.662Z,102998.19
2023-02-06T17:15:17.487Z,103000.34
2023-02-06T17:17:44.261Z,103003.38
2023-02-06T17:20:38.705Z,103004.22
2023-02-06T17:23:06.098Z,102996.63
2023-02-06T17:25:33.128Z,102999.41
2023-02-06T17:28:00.397Z,103003.31
2023-02-06T17:30:27.676Z,103006.38
2023-02-06T17:32:54.851Z,103003.03
2023-02-06T17:35:21.542Z,103006.91
2023-02-06T17:37:49.257Z,103008.03
2023-02-06T17:40:31.669Z,103000.81
2023-02-06T17:42:59.877Z,103003.88
2023-02-06T17:45:27.412Z,103001.69
2023-02-06T17:47:54.489Z,102999.69
2023-02-06T17:50:23.366Z,103015.28
2023-02-06T17:52:52.736Z,103012.22
2023-02-06T17:55:19.343Z,103015.34
2023-02-06T17:57:46.130Z,103011.72
2023-02-06T18:00:15.642Z,103010.34
2023-02-06T18:02:42.444Z,103009.56
2023-02-06T18:05:09.731Z,103005.06
2023-02-06T18:07:40.644Z,103002.59
2023-02-06T18:10:08.561Z,102997.03
2023-02-06T18:12:35.786Z,103003.16
2023-02-06T18:15:03.321Z,103000.44
2023-02-06T18:17:31.098Z,102992.63
2023-02-06T18:19:57.892Z,102990.94
2023-02-06T18:22:24.660Z,102997.06
2023-02-06T18:24:51.370Z,102992.94
2023-02-06T18:27:19.722Z,102999.34
2023-02-06T18:29:50.098Z,102992.63
2023-02-06T18:32:18.537Z,102997.06
2023-02-06T18:34:45.203Z,102986.53
2023-02-06T18:37:12.503Z,102988.75
2023-02-06T18:39:39.615Z,102995.41
2023-02-06T18:42:25.400Z,102993.78
2023-02-06T18:44:52.295Z,102990.41
2023-02-06T18:47:19.800Z,102992.63
2023-02-06T18:49:47.053Z,102991.25
2023-02-06T18:52:14.321Z,102988.75
2023-02-06T18:54:40.989Z,102992.63
2023-02-06T18:57:07.811Z,102995.44
2023-02-06T18:59:35.103Z,102992.69
2023-02-06T19:02:02.838Z,102992.69
2023-02-06T19:04:29.633Z,102991.59
2023-02-06T19:06:56.513Z,102989.06
2023-02-06T19:09:23.255Z,102986.84
2023-02-06T19:11:49.962Z,102996.56
2023-02-06T19:14:19.822Z,102981.84
2023-02-06T19:16:48.004Z,102974.31
2023-02-06T19:19:14.966Z,102983.78
2023-02-06T19:21:43.742Z,102979.88
2023-02-06T19:24:13.343Z,102978.22
2023-02-06T19:26:41.205Z,102967.94
2023-02-06T19:29:08.606Z,102971.81
2023-02-06T19:31:39.110Z,102971.81
2023-02-06T19:34:06.754Z,102974.03
2023-02-06T19:36:34.674Z,102974.31
2023-02-06T19:39:04.968Z,102979.88
2023-02-06T19:41:33.409Z,102974.03
2023-02-06T19:44:07.786Z,102980.97
2023-02-06T19:46:35.120Z,102970.38
2023-02-06T19:49:02.175Z,102972.88
2023-02-06T19:51:31.186Z,102960.88
2023-02-06T19:53:59.350Z,102959.19
2023-02-06T19:56:34.496Z,102971.41
2023-02-06T19:59:03.753Z,102971.69
2023-02-06T20:01:31.692Z,102973.63
2023-02-06T20:04:00.652Z,102974.38
2023-02-06T20:06:29.453Z,102971.34
2023-02-06T20:08:57.612Z,102977.97
2023-02-06T20:11:24.383Z,102974.06
2023-02-06T20:13:55.628Z,102982.94
2023-02-06T20:16:26.074Z,102981.53
2023-02-06T20:18:53.884Z,102975.19
2023-02-06T20:21:34.017Z,102975.22
2023-02-06T20:24:02.770Z,102977.16
2023-02-06T20:26:33.036Z,102979.19
2023-02-06T20:29:00.241Z,102979.19
2023-02-06T20:31:27.746Z,102980.34
2023-02-06T20:33:54.687Z,102979.53
2023-02-06T20:36:24.087Z,102985.31
2023-02-06T20:38:52.189Z,102984.81
2023-02-06T20:41:20.140Z,102989.78
2023-02-06T20:43:48.146Z,102985.38
2023-02-06T20:46:17.352Z,102988.22
2023-02-06T20:48:45.759Z,102981.56
2023-02-06T20:51:14.059Z,102983.19
2023-02-06T20:53:41.219Z,102978.09
2023-02-06T20:56:12.605Z,102974.13
2023-02-06T20:58:39.448Z,102977.44
2023-02-06T21:01:32.480Z,102969.06
2023-02-06T21:04:05.654Z,102960.16
2023-02-06T21:06:34.380Z,102960.69
2023-02-06T21:09:01.734Z,102954.81
2023-02-06T21:11:30.583Z,102941.72
2023-02-06T21:13:59.557Z,102939.50
2023-02-06T21:16:28.133Z,102935.56
2023-02-06T21:18:57.286Z,102939.97
2023-02-06T21:21:27.903Z,102941.03
2023-02-06T21:23:58.027Z,102938.78
2023-02-06T21:26:25.651Z,102943.47
2023-02-06T21:28:52.896Z,102942.59
2023-02-06T21:31:25.771Z,102942.03
2023-02-06T21:33:52.840Z,102932.31
2023-02-06T21:36:37.496Z,102935.63
2023-02-06T21:39:04.390Z,102934.75
2023-02-06T21:41:32.296Z,102938.59
2023-02-06T21:44:00.388Z,102934.41
2023-02-06T21:46:29.867Z,102932.47
2023-02-06T21:48:56.831Z,102931.31
2023-02-06T21:51:23.786Z,102937.69
2023-02-06T21:53:50.502Z,102933.75
2023-02-06T21:56:22.432Z,102924.88
2023-02-06T21:58:49.841Z,102933.97
2023-02-06T22:01:20.005Z,102940.63
2023-02-06T22:03:47.261Z,102918.09
2023-02-06T22:06:15.035Z,102927.19
2023-02-06T22:08:44.371Z,102925.78
2023-02-06T22:11:12.276Z,102929.94
2023-02-06T22:13:39.446Z,102932.16
2023-02-06T22:16:07.439Z,102926.28
2023-02-06T22:18:34.159Z,102939.28
2023-02-06T22:21:15.568Z,102927.03
2023-02-06T22:23:43.741Z,102935.34
2023-02-06T22:26:13.598Z,102939.75
2023-02-06T22:28:40.856Z,102931.44
2023-02-06T22:31:16.630Z,102926.41
2023-02-06T22:33:44.016Z,102928.31
2023-02-06T22:36:13.746Z,102925.78
2023-02-06T22:38:42.238Z,102922.44
2023-02-06T22:41:12.905Z,102929.34
2023-02-06T22:43:39.852Z,102931.81
2023-02-06T22:46:07.184Z,102925.41
2023-02-06T22:48:34.321Z,102925.06
2023-02-06T22:51:09.246Z,102925.06
2023-02-06T22:53:38.293Z,102926.22
2023-02-06T22:56:27.174Z,102932.28
2023-02-06T22:58:55.628Z,102924.25
2023-02-06T23:01:24.791Z,102925.31
2023-02-06T23:03:53.137Z,102920.53
2023-02-06T23:06:23.409Z,102925.47
2023-02-06T23:08:50.319Z,102932.72
2023-02-06T23:11:17.090Z,102930.19
2023-02-06T23:13:43.868Z,102926.84
2023-02-06T23:16:11.259Z,102934.25
2023-02-06T23:18:38.170Z,102933.09
2023-02-06T23:21:12.048Z,102933.09
2023-02-06T23:23:40.321Z,102948.06
2023-02-06T23:26:10.392Z,102945.72
2023-02-06T23:28:38.391Z,102935.16
2023-02-06T23:31:06.180Z,102941.53
2023-02-06T23:33:33.777Z,102935.16
2023-02-06T23:36:20.676Z,102935.66
2023-02-06T23:38:48.110Z,102938.38
2023-02-06T23:41:17.525Z,102932.00
2023-02-06T23:43:44.785Z,102925.03
2023-02-06T23:46:12.714Z,102926.16
2023-02-06T23:48:40.024Z,102943.03
2023-02-06T23:51:07.083Z,102936.06
2023-02-06T23:53:34.133Z,102927.72
2023-02-06T23:56:00.885Z,102939.31
2023-02-06T23:58:27.605Z,102932.06
